Time;durP1;ratioP1;P1;durP2;ratioP2;P2;SDS_P1;SDS_P2;PMS_P1;PMS_P2;Temp;Humidity;BMP_temperature;BMP_pressure;BME280_temperature;BME280_humidity;BME280_pressure;Samples;Min_cycle;Max_cycle;Signal;HPM_P1;HPM_P2
2023/06/01 00:03:52;;;;;;;5.68;3.08;;;;;;;20.57;40.00;102165.41;16115967;19;130430;-41
2023/06/01 00:09:15;;;;;;;8.02;2.60;;;;;;;20.56;39.78;102158.16;16114971;19;129728;-41
2023/06/01 00:14:36;;;;;;;6.18;3.03;;;;;;;20.54;39.68;102158.38;16117923;19;131179;-41
2023/06/01 00:20:00;;;;;;;6.90;2.83;;;;;;;20.54;39.78;102144.50;16114854;19;129799;-39
2023/06/01 00:25:22;;;;;;;6.95;2.80;;;;;;;20.53;40.13;102145.56;16120441;19;130199;-41
2023/06/01 00:30:44;;;;;;;5.95;2.60;;;;;;;20.52;39.65;102152.19;16112978;19;129643;-41
2023/06/01 00:36:06;;;;;;;5.00;2.45;;;;;;;20.51;39.83;102149.63;16116287;19;132033;-43
2023/06/01 00:41:29;;;;;;;5.97;2.35;;;;;;;20.52;40.05;102148.56;16117850;19;129562;-41
2023/06/01 00:46:51;;;;;;;5.55;2.60;;;;;;;20.51;40.02;102152.41;16114609;19;134952;-45
2023/06/01 00:52:17;;;;;;;4.30;2.53;;;;;;;20.51;39.97;102149.63;16115069;19;130223;-44
2023/06/01 00:57:42;;;;;;;5.20;2.45;;;;;;;20.51;39.87;102149.63;16116860;19;130104;-41
2023/06/01 01:03:08;;;;;;;4.95;2.70;;;;;;;20.49;39.54;102154.59;16110152;19;130293;-42
2023/06/01 01:08:41;;;;;;;4.40;2.45;;;;;;;20.51;39.91;102155.19;16107349;19;134723;-40
2023/06/01 01:14:11;;;;;;;7.75;2.58;;;;;;;20.49;39.56;102163.78;16113658;19;130341;-42
2023/06/01 01:19:57;;;;;;;4.28;2.60;;;;;;;20.50;39.47;102159.03;16112158;19;131314;-40
2023/06/01 01:25:44;;;;;;;5.40;2.80;;;;;;;20.49;39.58;102149.03;16107079;19;131932;-44
2023/06/01 01:31:09;;;;;;;5.73;2.30;;;;;;;20.46;39.79;102161.44;16109677;19;129638;-38
2023/06/01 01:36:32;;;;;;;3.42;2.25;;;;;;;20.46;39.84;102158.66;16112880;19;130867;-40
2023/06/01 01:41:54;;;;;;;5.97;2.38;;;;;;;20.44;39.38;102150.56;16113778;19;130458;-45
2023/06/01 01:47:34;;;;;;;5.03;2.80;;;;;;;20.45;39.58;102160.59;16112164;19;131222;-40
2023/06/01 01:52:57;;;;;;;6.30;2.65;;;;;;;20.44;39.37;102163.59;16108834;19;130592;-39
2023/06/01 01:58:20;;;;;;;5.03;2.92;;;;;;;20.43;39.51;102153.59;16107326;19;129679;-41
2023/06/01 02:03:42;;;;;;;4.93;2.63;;;;;;;20.42;39.53;102154.66;16111546;19;129826;-39
2023/06/01 02:09:08;;;;;;;6.95;2.90;;;;;;;20.41;39.34;102155.75;16103622;19;131061;-42
2023/06/01 02:14:30;;;;;;;5.18;2.83;;;;;;;20.40;39.47;102154.03;16105075;19;130713;-40
2023/06/01 02:19:52;;;;;;;3.78;2.28;;;;;;;20.40;39.25;102154.03;16105032;19;131478;-43
2023/06/01 02:25:14;;;;;;;5.18;2.90;;;;;;;20.38;39.25;102156.19;16102627;19;130279;-39
2023/06/01 02:30:36;;;;;;;5.60;3.25;;;;;;;20.39;39.27;102155.94;16107036;19;131197;-39
2023/06/01 02:35:58;;;;;;;5.00;2.50;;;;;;;20.38;39.68;102167.31;16103893;19;131276;-40
2023/06/01 02:41:21;;;;;;;3.92;2.75;;;;;;;20.37;39.14;102165.59;16108377;19;129952;-40
2023/06/01 02:46:43;;;;;;;5.40;3.13;;;;;;;20.36;39.09;102158.34;16109033;19;129468;-41
2023/06/01 02:52:05;;;;;;;7.00;2.83;;;;;;;20.36;39.03;102167.53;16105283;19;130712;-40
2023/06/01 02:57:27;;;;;;;4.93;2.70;;;;;;;20.35;39.50;102167.75;16104890;19;129866;-40
2023/06/01 03:02:49;;;;;;;6.20;2.65;;;;;;;20.36;39.46;102166.69;16104402;19;129812;-40
2023/06/01 03:08:11;;;;;;;6.20;2.65;;;;;;;20.35;39.38;102167.75;16101758;19;130872;-41
2023/06/01 03:13:33;;;;;;;6.10;2.88;;;;;;;20.35;39.37;102170.53;16104099;19;129915;-41
2023/06/01 03:18:55;;;;;;;4.57;2.80;;;;;;;20.34;39.11;102163.28;16107480;19;130192;-43
2023/06/01 03:24:17;;;;;;;6.28;3.13;;;;;;;20.33;39.07;102167.13;16111155;19;129753;-40
2023/06/01 03:29:39;;;;;;;5.25;3.15;;;;;;;20.29;39.05;102159.25;16123122;19;129992;-41
2023/06/01 03:35:01;;;;;;;6.15;3.00;;;;;;;20.29;38.58;102169.50;16121323;19;130876;-44
2023/06/01 03:40:23;;;;;;;4.60;2.65;;;;;;;20.27;38.66;102161.41;16121724;19;129374;-39
2023/06/01 03:45:45;;;;;;;5.15;3.45;;;;;;;20.26;38.56;102170.81;16121829;19;130602;-40
2023/06/01 03:51:07;;;;;;;6.70;2.80;;;;;;;20.26;38.77;102168.06;16119768;19;129788;-41
2023/06/01 03:56:29;;;;;;;4.90;2.67;;;;;;;20.26;38.58;102181.94;16121758;19;131103;-39
2023/06/01 04:01:51;;;;;;;5.80;3.35;;;;;;;20.23;38.87;102176.84;16116370;19;132212;-41
2023/06/01 04:07:21;;;;;;;5.93;2.90;;;;;;;20.23;38.66;102171.28;16118049;19;133186;-39
2023/06/01 04:12:44;;;;;;;5.60;2.90;;;;;;;20.22;38.62;102172.34;16118618;19;130696;-41
2023/06/01 04:18:06;;;;;;;5.10;3.08;;;;;;;20.21;38.69;102184.53;16117276;19;135403;-43
2023/06/01 04:23:28;;;;;;;6.80;2.80;;;;;;;20.21;38.38;102189.25;16118063;19;131406;-41
2023/06/01 04:28:50;;;;;;;7.80;3.35;;;;;;;20.20;38.55;102188.38;16119575;19;132073;-41
2023/06/01 04:34:12;;;;;;;6.80;3.28;;;;;;;20.19;38.44;102208.09;16112055;19;129461;-41
2023/06/01 04:39:35;;;;;;;5.88;3.15;;;;;;;20.18;38.66;102203.59;16116772;19;130592;-42
2023/06/01 04:44:58;;;;;;;13.20;3.42;;;;;;;20.17;38.19;102211.09;16110741;19;129725;-45
2023/06/01 04:50:20;;;;;;;6.53;3.08;;;;;;;20.17;38.22;102211.09;16112144;19;131571;-44
2023/06/01 04:55:44;;;;;;;7.38;3.28;;;;;;;20.19;38.42;102214.47;16108809;19;132406;-41
2023/06/01 05:01:06;;;;;;;10.40;3.33;;;;;;;20.23;38.64;102212.13;16117107;19;130788;-42
2023/06/01 05:06:28;;;;;;;11.07;3.38;;;;;;;20.29;38.74;102208.41;16113061;19;129618;-41
2023/06/01 05:11:50;;;;;;;10.32;3.58;;;;;;;20.31;38.51;102211.00;16110657;19;131354;-41
2023/06/01 05:17:12;;;;;;;12.18;3.53;;;;;;;20.33;38.45;102217.16;16116654;19;130526;-41
2023/06/01 05:22:35;;;;;;;12.68;3.53;;;;;;;20.35;38.59;102212.22;16117252;19;131740;-42
2023/06/01 05:27:57;;;;;;;9.73;3.42;;;;;;;20.34;38.59;102221.63;16115217;19;130124;-49
2023/06/01 05:33:19;;;;;;;9.52;3.10;;;;;;;20.34;38.31;102218.84;16119021;19;130122;-43
2023/06/01 05:38:41;;;;;;;9.02;3.53;;;;;;;20.33;38.39;102215.25;16116348;19;130318;-41
2023/06/01 05:44:03;;;;;;;7.38;3.70;;;;;;;20.35;38.20;102215.00;16112075;19;130102;-47
2023/06/01 05:49:25;;;;;;;10.77;3.70;;;;;;;20.35;38.39;102209.44;16114014;19;131030;-45
2023/06/01 05:54:49;;;;;;;5.90;2.97;;;;;;;20.37;38.69;102210.06;16089568;19;130412;-42
2023/06/01 06:00:13;;;;;;;9.30;2.60;;;;;;;20.41;38.82;102211.31;16112806;19;130294;-43
2023/06/01 06:05:35;;;;;;;6.30;2.70;;;;;;;20.42;38.14;102215.81;16107800;19;131037;-44
2023/06/01 06:10:57;;;;;;;8.45;2.95;;;;;;;20.44;38.54;102216.41;16107528;19;130726;-44
2023/06/01 06:16:19;;;;;;;6.97;3.15;;;;;;;20.47;38.30;102220.69;16108894;19;130332;-45
2023/06/01 06:21:42;;;;;;;8.40;3.00;;;;;;;20.49;38.41;102221.31;16107376;19;130774;-44
2023/06/01 06:27:05;;;;;;;5.03;2.60;;;;;;;20.53;38.48;102215.06;16109129;19;129776;-43
2023/06/01 06:32:27;;;;;;;10.90;2.95;;;;;;;20.58;38.32;102218.00;16107311;19;129944;-46
2023/06/01 06:37:49;;;;;;;8.13;2.97;;;;;;;20.66;38.41;102229.94;16114454;19;130682;-43
2023/06/01 06:43:13;;;;;;;5.88;2.40;;;;;;;20.74;38.29;102226.84;16106881;19;133356;-47
2023/06/01 06:48:35;;;;;;;13.68;2.85;;;;;;;20.85;38.58;102222.50;16106379;19;131267;-48
2023/06/01 06:53:58;;;;;;;11.00;3.40;;;;;;;20.96;38.21;102218.94;16106154;19;129588;-41
2023/06/01 06:59:20;;;;;;;9.90;2.50;;;;;;;21.08;38.28;102229.31;16106856;19;130482;-41
2023/06/01 07:04:42;;;;;;;9.77;2.80;;;;;;;21.20;38.08;102219.94;16106662;19;129683;-46
2023/06/01 07:10:05;;;;;;;12.23;3.08;;;;;;;21.32;37.72;102217.25;16106853;19;130742;-43
2023/06/01 07:15:27;;;;;;;15.52;3.05;;;;;;;21.42;38.14;102225.00;16101202;19;129603;-43
2023/06/01 07:20:49;;;;;;;15.55;3.33;;;;;;;21.50;38.04;102218.31;16105684;19;129834;-42
2023/06/01 07:26:11;;;;;;;14.07;3.35;;;;;;;21.55;37.63;102218.47;16100850;19;130332;-47
2023/06/01 07:31:34;;;;;;;14.18;3.35;;;;;;;21.59;37.53;102225.28;16104287;19;131197;-44
2023/06/01 07:36:58;;;;;;;24.15;3.85;;;;;;;21.62;37.25;102227.56;16105113;19;129926;-50
2023/06/01 07:42:37;;;;;;;17.77;3.33;;;;;;;21.64;37.78;102219.00;16108135;19;130340;-48
2023/06/01 07:48:00;;;;;;;29.67;4.63;;;;;;;21.65;37.61;102215.97;16101574;19;131276;-45
2023/06/01 07:53:23;;;;;;;32.95;4.43;;;;;;;21.66;37.38;102214.88;16103053;19;130289;-48
2023/06/01 07:58:46;;;;;;;38.75;5.05;;;;;;;21.67;37.34;102212.94;16106149;19;131818;-45
2023/06/01 08:04:10;;;;;;;14.68;3.60;;;;;;;21.67;37.02;102216.59;16103546;19;130031;-48
2023/06/01 08:09:32;;;;;;;19.33;3.75;;;;;;;21.67;36.74;102219.38;16122078;19;130074;-47
2023/06/01 08:14:57;;;;;;;13.02;3.50;;;;;;;21.67;36.64;102227.72;16118510;19;130789;-45
2023/06/01 08:20:22;;;;;;;13.25;3.35;;;;;;;21.69;37.04;102226.66;16117353;19;130166;-43
2023/06/01 08:25:47;;;;;;;;;;;;;;;21.67;36.64;102218.50;16121863;19;130613;-47
2023/06/01 08:31:09;;;;;;;15.68;3.60;;;;;;;21.70;36.67;102212.47;16118614;19;129659;-43
2023/06/01 08:36:31;;;;;;;10.00;3.40;;;;;;;21.65;36.59;102210.41;16116400;19;129712;-44
2023/06/01 08:42:12;;;;;;;15.45;3.67;;;;;;;21.66;36.86;102214.03;16112911;19;129876;-45
2023/06/01 08:47:37;;;;;;;19.63;4.30;;;;;;;21.65;37.27;102207.63;16118618;19;130290;-43
2023/06/01 08:52:59;;;;;;;;;;;;;;;21.63;37.73;102197.81;16115089;19;130777;-45
2023/06/01 08:58:21;;;;;;;20.55;3.92;;;;;;;21.67;38.22;102196.22;16114501;19;133392;-45
2023/06/01 09:03:44;;;;;;;23.25;4.32;;;;;;;21.67;38.75;102185.94;16112866;19;130201;-44
2023/06/01 09:09:11;;;;;;;10.75;3.92;;;;;;;21.69;38.60;102196.00;16111455;19;135654;-41
2023/06/01 09:14:33;;;;;;;20.52;4.60;;;;;;;21.67;39.15;102191.53;16111447;19;129878;-42
2023/06/01 09:19:55;;;;;;;18.08;4.55;;;;;;;21.67;39.25;102190.66;16110193;19;130915;-44
2023/06/01 09:25:29;;;;;;;16.60;4.45;;;;;;;21.64;39.45;102178.06;16110162;19;130174;-44
2023/06/01 09:30:51;;;;;;;12.90;4.47;;;;;;;21.58;39.40;102164.22;16113260;19;131444;-45
2023/06/01 09:36:25;;;;;;;16.33;5.53;;;;;;;21.55;39.75;102164.69;16109442;19;131144;-47
2023/06/01 09:41:58;;;;;;;14.25;5.00;;;;;;;21.54;40.31;102168.59;16114587;19;131211;-44
2023/06/01 09:47:28;;;;;;;12.27;4.25;;;;;;;21.52;40.31;102166.91;16113365;19;129749;-41
2023/06/01 09:52:58;;;;;;;11.60;4.68;;;;;;;21.52;39.93;102166.03;16113480;19;129767;-46
2023/06/01 09:58:21;;;;;;;13.05;5.20;;;;;;;21.51;40.25;102147.63;16110125;19;130316;-44
2023/06/01 10:03:44;;;;;;;12.13;4.65;;;;;;;21.48;40.13;102157.28;16115914;19;130533;-42
2023/06/01 10:09:15;;;;;;;13.82;5.22;;;;;;;21.47;40.13;102149.16;16112866;19;131644;-47
2023/06/01 10:14:38;;;;;;;16.52;5.65;;;;;;;21.41;39.72;102150.09;16110022;19;129531;-42
2023/06/01 10:20:01;;;;;;;20.77;5.55;;;;;;;21.39;39.86;102155.03;16111229;19;129646;-45
2023/06/01 10:25:25;;;;;;;13.50;4.35;;;;;;;21.39;39.77;102144.78;16112379;19;129508;-41
2023/06/01 10:31:25;;;;;;;12.48;4.55;;;;;;;21.41;40.11;102148.19;16112335;19;134845;-48
2023/06/01 10:36:53;;;;;;;10.88;4.75;;;;;;;21.41;39.76;102137.03;16115987;19;130824;-45
2023/06/01 10:42:17;;;;;;;8.63;4.43;;;;;;;21.39;40.10;102139.22;16110003;19;129641;-42
2023/06/01 10:47:39;;;;;;;10.27;4.53;;;;;;;21.41;40.47;102125.91;16112702;19;131115;-45
2023/06/01 10:53:30;;;;;;;13.02;5.00;;;;;;;21.43;40.18;102129.28;16109578;19;131152;-47
2023/06/01 10:59:07;;;;;;;10.57;4.97;;;;;;;21.43;40.36;102122.88;16111148;19;130823;-45
2023/06/01 11:04:38;;;;;;;10.00;5.05;;;;;;;21.41;40.89;102120.34;16110535;19;131726;-45
2023/06/01 11:10:00;;;;;;;10.20;4.25;;;;;;;21.43;41.05;102108.97;16107531;19;130274;-45
2023/06/01 11:15:22;;;;;;;16.60;4.53;;;;;;;21.43;40.72;102109.78;16103876;19;130257;-48
2023/06/01 11:20:44;;;;;;;12.00;5.25;;;;;;;21.42;40.58;102108.09;16103204;19;129737;-44
2023/06/01 11:26:07;;;;;;;8.75;4.40;;;;;;;21.43;40.91;102090.31;16105390;19;132811;-43
2023/06/01 11:31:35;;;;;;;7.68;4.85;;;;;;;21.46;40.24;102092.63;16102887;19;129622;-45
2023/06/01 11:36:58;;;;;;;15.98;5.22;;;;;;;21.46;40.49;102100.97;16102001;19;130400;-46
2023/06/01 11:42:21;;;;;;;11.15;5.13;;;;;;;21.46;40.62;102089.84;16117897;19;129605;-45
2023/06/01 11:47:45;;;;;;;8.80;5.05;;;;;;;21.46;40.40;102087.06;16123678;19;131261;-46
2023/06/01 11:53:11;;;;;;;10.15;5.15;;;;;;;21.48;40.30;102092.38;16114217;19;130309;-46
2023/06/01 11:58:33;;;;;;;15.82;5.28;;;;;;;21.49;40.39;102086.63;16120028;19;130255;-44
2023/06/01 12:03:56;;;;;;;11.98;5.05;;;;;;;21.47;40.14;102082.34;16111616;19;130047;-43
2023/06/01 12:09:20;;;;;;;14.63;5.50;;;;;;;21.45;39.53;102088.13;16124976;19;129581;-44
2023/06/01 12:14:43;;;;;;;11.80;5.60;;;;;;;21.44;40.01;102082.81;16118481;19;129984;-45
2023/06/01 12:20:06;;;;;;;9.70;5.38;;;;;;;21.43;40.21;102084.72;16120116;19;129639;-47
2023/06/01 12:25:31;;;;;;;14.27;6.03;;;;;;;21.45;39.94;102085.34;16121081;19;131450;-45
2023/06/01 12:31:12;;;;;;;7.93;5.35;;;;;;;21.48;39.53;102087.66;16118155;19;129636;-45
2023/06/01 12:36:37;;;;;;;10.13;5.45;;;;;;;21.48;39.85;102090.44;16115431;19;131334;-44
2023/06/01 12:42:00;;;;;;;13.70;5.70;;;;;;;21.49;39.85;102074.63;16107749;19;129808;-47
2023/06/01 12:47:22;;;;;;;10.52;5.43;;;;;;;21.49;39.63;102075.47;16113340;19;130257;-43
2023/06/01 12:52:45;;;;;;;10.65;5.78;;;;;;;21.49;39.22;102081.06;16114304;19;130066;-49
2023/06/01 12:58:07;;;;;;;12.43;5.63;;;;;;;21.48;39.24;102073.75;16105932;19;133483;-43
2023/06/01 13:03:29;;;;;;;12.45;5.53;;;;;;;21.50;39.10;102060.47;16116735;19;129719;-45
2023/06/01 13:08:52;;;;;;;12.82;6.07;;;;;;;21.47;38.83;102052.56;16109767;19;131320;-46
2023/06/01 13:14:14;;;;;;;12.95;5.45;;;;;;;21.48;39.22;102054.25;16110484;19;130465;-47
2023/06/01 13:19:36;;;;;;;9.95;5.70;;;;;;;21.47;39.08;102055.34;16110737;19;130839;-49
2023/06/01 13:24:58;;;;;;;10.65;5.57;;;;;;;21.47;38.79;102052.56;16113334;19;130780;-52
2023/06/01 13:30:28;;;;;;;10.73;5.57;;;;;;;21.47;38.77;102040.59;16115832;19;129534;-51
2023/06/01 13:35:50;;;;;;;9.52;5.18;;;;;;;21.48;39.02;102031.13;16110381;19;129690;-48
2023/06/01 13:41:12;;;;;;;9.93;5.50;;;;;;;21.45;39.08;102038.03;16116433;19;131765;-47
2023/06/01 13:46:34;;;;;;;8.95;4.90;;;;;;;21.45;39.25;102035.25;16114305;19;129610;-52
2023/06/01 13:51:56;;;;;;;8.02;5.05;;;;;;;21.45;38.92;102043.59;16116826;19;130395;-51
2023/06/01 13:57:18;;;;;;;7.07;4.50;;;;;;;21.44;38.77;102044.69;16114362;19;129727;-49
2023/06/01 14:02:40;;;;;;;12.80;5.63;;;;;;;21.45;38.92;102037.19;16111571;19;129465;-53
2023/06/01 14:08:04;;;;;;;9.65;4.90;;;;;;;21.43;38.93;102026.28;16108060;19;129867;-49
2023/06/01 14:13:26;;;;;;;6.50;4.22;;;;;;;21.45;39.11;102026.06;16114509;19;129433;-47
2023/06/01 14:18:48;;;;;;;10.25;4.95;;;;;;;21.44;39.21;102025.19;16112768;19;130413;-51
2023/06/01 14:24:10;;;;;;;9.15;5.05;;;;;;;21.44;38.94;102019.63;16113408;19;129429;-52
2023/06/01 14:29:31;;;;;;;7.32;4.43;;;;;;;21.43;38.97;102017.91;16115181;19;129425;-49
2023/06/01 14:34:53;;;;;;;9.20;4.75;;;;;;;21.44;39.03;102016.00;16111334;19;129507;-51
2023/06/01 14:40:15;;;;;;;8.82;4.47;;;;;;;21.43;38.76;102006.78;16102857;19;131235;-48
2023/06/01 14:45:37;;;;;;;7.60;4.80;;;;;;;21.43;38.74;102017.91;16111239;19;129484;-43
2023/06/01 14:50:59;;;;;;;8.43;4.88;;;;;;;21.41;38.43;102028.47;16111506;19;130461;-51
2023/06/01 14:56:22;;;;;;;7.40;4.35;;;;;;;21.40;38.43;102009.19;16112517;19;129951;-46
2023/06/01 15:01:44;;;;;;;7.47;4.82;;;;;;;21.40;38.19;101993.38;16111611;19;129989;-48
2023/06/01 15:07:06;;;;;;;8.93;4.13;;;;;;;21.39;38.18;102008.38;16088350;19;133077;-47
2023/06/01 15:12:28;;;;;;;11.23;4.32;;;;;;;21.38;38.11;101998.31;16086285;19;130120;-52
2023/06/01 15:17:50;;;;;;;6.80;4.25;;;;;;;21.39;38.12;101988.03;16097829;19;130428;-50
2023/06/01 15:23:12;;;;;;;10.00;4.18;;;;;;;21.39;37.59;101991.66;16115109;19;130449;-43
2023/06/01 15:28:34;;;;;;;10.88;4.18;;;;;;;21.38;37.40;101987.19;16122574;19;131993;-44
2023/06/01 15:33:56;;;;;;;8.65;4.32;;;;;;;21.37;37.21;101983.53;16122280;19;131174;-42
2023/06/01 15:39:18;;;;;;;11.38;4.30;;;;;;;21.38;37.20;101998.31;16122550;19;131108;-43
2023/06/01 15:44:42;;;;;;;11.90;4.82;;;;;;;21.40;37.49;101985.03;16120435;19;129010;-47
2023/06/01 15:50:05;;;;;;;9.90;4.82;;;;;;;21.41;38.06;101985.84;16117050;19;131567;-47
2023/06/01 15:55:27;;;;;;;12.82;4.63;;;;;;;21.42;37.81;101976.41;16114349;19;131135;-45
2023/06/01 16:00:49;;;;;;;15.00;4.18;;;;;;;21.44;37.90;101972.28;16120541;19;129837;-44
2023/06/01 16:06:26;;;;;;;14.30;5.32;;;;;;;21.42;37.47;101968.91;16120005;19;130538;-45
2023/06/01 16:11:48;;;;;;;14.07;4.82;;;;;;;21.40;37.55;101962.75;16123213;19;131872;-43
2023/06/01 16:17:10;;;;;;;12.88;4.40;;;;;;;21.40;37.15;101962.75;16117143;19;130309;-43
2023/06/01 16:22:33;;;;;;;11.52;4.40;;;;;;;21.39;36.99;101946.25;16119518;19;129528;-45
2023/06/01 16:27:55;;;;;;;8.85;3.72;;;;;;;21.37;37.08;101957.66;16117641;19;130694;-44
2023/06/01 16:33:18;;;;;;;6.68;3.97;;;;;;;21.37;36.65;101954.88;16115807;19;131257;-44
2023/06/01 16:38:40;;;;;;;8.63;3.53;;;;;;;21.42;36.69;101962.50;16120458;19;129603;-46
2023/06/01 16:44:02;;;;;;;8.63;3.53;;;;;;;21.43;37.00;101961.41;16115648;19;131269;-45
2023/06/01 16:49:24;;;;;;;11.15;3.78;;;;;;;21.44;36.66;101965.91;16114928;19;129486;-46
2023/06/01 16:54:45;;;;;;;4.22;3.00;;;;;;;21.45;36.93;101957.28;16117545;19;131514;-42
2023/06/01 17:00:09;;;;;;;7.10;3.30;;;;;;;21.46;36.83;101959.00;16118553;19;130585;-49
2023/06/01 17:05:33;;;;;;;5.53;3.10;;;;;;;21.47;37.05;101963.47;16116993;19;136071;-47
2023/06/01 17:10:55;;;;;;;7.15;3.25;;;;;;;21.47;37.08;101957.06;16118299;19;130604;-45
2023/06/01 17:16:17;;;;;;;7.47;3.20;;;;;;;21.47;37.37;101962.63;16119077;19;130345;-47
2023/06/01 17:21:40;;;;;;;6.80;3.15;;;;;;;21.47;37.04;101971.00;16111535;19;129789;-47
2023/06/01 17:27:02;;;;;;;8.40;2.55;;;;;;;21.49;37.30;101979.94;16117999;19;129827;-48
2023/06/01 17:32:25;;;;;;;8.95;2.83;;;;;;;21.54;37.57;101962.56;16118157;19;131097;-47
2023/06/01 17:37:47;;;;;;;10.75;2.63;;;;;;;21.57;37.95;101973.19;16045312;19;134820;-45
2023/06/01 17:43:09;;;;;;;7.20;2.10;;;;;;;21.60;37.68;101967.13;16112842;19;130564;-46
2023/06/01 17:48:31;;;;;;;8.20;2.13;;;;;;;21.63;37.66;101966.66;16115907;19;129491;-47
2023/06/01 17:53:53;;;;;;;5.03;1.85;;;;;;;21.64;37.30;101971.97;16112688;19;130344;-44
2023/06/01 17:59:15;;;;;;;5.18;2.00;;;;;;;21.66;37.09;101975.38;16116317;19;129707;-44
2023/06/01 18:04:37;;;;;;;6.03;2.08;;;;;;;21.67;36.89;101974.28;16114669;19;129843;-43
2023/06/01 18:09:59;;;;;;;6.32;1.50;;;;;;;21.67;37.15;101981.78;16110354;19;131046;-45
2023/06/01 18:15:21;;;;;;;4.38;1.13;;;;;;;21.64;36.71;101985.06;16111716;19;130434;-46
2023/06/01 18:20:43;;;;;;;6.72;1.60;;;;;;;21.61;36.90;101983.59;16114517;19;129978;-48
2023/06/01 18:26:07;;;;;;;5.10;1.27;;;;;;;21.57;36.93;101989.91;16114642;19;131303;-47
2023/06/01 18:31:30;;;;;;;5.35;1.52;;;;;;;21.53;36.89;101997.88;16112426;19;130883;-47
2023/06/01 18:36:52;;;;;;;3.38;1.25;;;;;;;21.48;37.07;101998.56;16112265;19;130012;-44
2023/06/01 18:42:15;;;;;;;4.13;1.33;;;;;;;21.45;36.99;102006.56;16112504;19;129657;-50
2023/06/01 18:47:37;;;;;;;9.85;1.30;;;;;;;21.42;37.29;101999.53;16109695;19;129629;-48
2023/06/01 18:52:58;;;;;;;21.63;2.45;;;;;;;21.36;37.43;102006.06;16092698;19;131982;-48
2023/06/01 18:58:20;;;;;;;11.25;1.55;;;;;;;21.33;37.21;102009.31;16100230;19;131441;-47
2023/06/01 19:03:44;;;;;;;7.78;1.77;;;;;;;21.31;37.52;102009.56;16104605;19;131209;-49
2023/06/01 19:09:18;;;;;;;12.68;1.80;;;;;;;21.30;37.83;102010.66;16101632;19;129540;-43
2023/06/01 19:14:41;;;;;;;16.13;1.70;;;;;;;21.27;37.80;102008.31;16099809;19;130882;-46
2023/06/01 19:20:05;;;;;;;6.63;1.67;;;;;;;21.28;37.41;102014.75;16103345;19;130346;-47
2023/06/01 19:25:27;;;;;;;9.52;1.52;;;;;;;21.28;37.56;102014.75;16102496;19;129972;-49
2023/06/01 19:30:48;;;;;;;8.80;1.55;;;;;;;21.28;37.54;102014.75;16102285;19;130738;-51
2023/06/01 19:36:42;;;;;;;6.88;1.58;;;;;;;21.28;37.76;102017.53;16108075;19;129628;-48
2023/06/01 19:42:32;;;;;;;13.23;1.75;;;;;;;21.28;37.34;102032.28;16100090;19;130023;-44
2023/06/01 19:47:54;;;;;;;18.00;1.95;;;;;;;21.22;37.49;102028.53;16093844;19;131165;-50
2023/06/01 19:53:16;;;;;;;11.48;1.67;;;;;;;21.26;37.35;102034.47;16088628;19;130800;-46
2023/06/01 19:58:41;;;;;;;12.48;1.65;;;;;;;21.22;37.52;102034.09;16088410;19;130873;-47
2023/06/01 20:04:04;;;;;;;9.88;1.90;;;;;;;21.20;37.31;102046.56;16112516;19;131146;-47
2023/06/01 20:09:26;;;;;;;8.27;1.85;;;;;;;21.15;37.24;102054.75;16121274;19;131604;-43
2023/06/01 20:14:48;;;;;;;28.02;2.72;;;;;;;21.10;37.17;102055.47;16121219;19;129962;-43
2023/06/01 20:20:10;;;;;;;13.05;1.83;;;;;;;21.08;37.37;102056.78;16120802;19;131673;-46
2023/06/01 20:25:33;;;;;;;8.52;1.60;;;;;;;21.03;36.98;102057.50;16120905;19;133857;-48
2023/06/01 20:31:03;;;;;;;8.48;1.50;;;;;;;21.02;36.88;102058.59;16120284;19;131533;-44
2023/06/01 20:36:29;;;;;;;8.13;1.52;;;;;;;20.98;36.98;102054.56;16122792;19;129352;-46
2023/06/01 20:41:55;;;;;;;13.93;2.23;;;;;;;20.97;36.93;102056.50;16118938;19;129625;-46
2023/06/01 20:47:17;;;;;;;4.90;1.45;;;;;;;20.96;37.06;102052.03;16118106;19;130413;-49
2023/06/01 20:52:39;;;;;;;4.20;1.45;;;;;;;20.96;36.89;102060.38;16118859;19;131225;-45
2023/06/01 20:58:01;;;;;;;7.30;1.65;;;;;;;20.96;36.87;102063.16;16117234;19;131173;-46
2023/06/01 21:03:23;;;;;;;7.50;1.90;;;;;;;20.94;37.02;102064.47;16116784;19;129760;-41
2023/06/01 21:08:45;;;;;;;7.70;1.70;;;;;;;20.89;36.29;102060.47;16112651;19;130908;-41
2023/06/01 21:14:07;;;;;;;5.10;1.80;;;;;;;20.85;36.23;102064.78;16112861;19;129791;-47
2023/06/01 21:19:29;;;;;;;7.43;1.92;;;;;;;20.82;36.15;102056.91;16117898;19;131118;-43
2023/06/01 21:24:51;;;;;;;8.65;1.90;;;;;;;20.80;36.41;102063.78;16119294;19;130499;-47
2023/06/01 21:30:13;;;;;;;7.78;2.03;;;;;;;20.79;36.38;102071.31;16116028;19;130332;-44
2023/06/01 21:35:39;;;;;;;3.80;1.67;;;;;;;20.77;36.53;102059.56;16114426;19;130766;-46
2023/06/01 21:41:02;;;;;;;5.55;2.25;;;;;;;20.74;36.40;102055.25;16112252;19;129887;-43
2023/06/01 21:46:24;;;;;;;5.07;2.08;;;;;;;20.73;36.56;102063.84;16111248;19;130731;-43
2023/06/01 21:51:46;;;;;;;8.02;1.90;;;;;;;20.70;36.59;102064.31;16109944;19;129995;-45
2023/06/01 21:57:08;;;;;;;3.75;1.60;;;;;;;20.69;36.57;102062.59;16107616;19;130658;-45
2023/06/01 22:02:30;;;;;;;7.40;1.80;;;;;;;20.67;36.39;102064.78;16114846;19;129377;-44
2023/06/01 22:07:52;;;;;;;3.60;1.25;;;;;;;20.67;36.23;102064.78;16112244;19;129334;-41
2023/06/01 22:13:14;;;;;;;4.03;1.40;;;;;;;20.67;36.26;102067.56;16108986;19;129796;-43
2023/06/01 22:18:36;;;;;;;3.83;1.40;;;;;;;20.64;36.07;102068.88;16112135;19;129971;-50
2023/06/01 22:23:58;;;;;;;3.25;1.40;;;;;;;20.62;36.25;102068.25;16106250;19;129420;-51
2023/06/01 22:29:20;;;;;;;5.40;1.30;;;;;;;20.62;36.58;102061.84;16110804;19;130549;-49
2023/06/01 22:34:43;;;;;;;6.03;1.70;;;;;;;20.60;36.13;102062.94;16111431;19;129970;-47
2023/06/01 22:40:06;;;;;;;4.47;1.33;;;;;;;20.56;36.31;102061.69;16107398;19;129696;-48
2023/06/01 22:45:28;;;;;;;2.67;1.17;;;;;;;20.56;36.41;102063.63;16105456;19;134391;-48
2023/06/01 22:50:52;;;;;;;5.88;1.60;;;;;;;20.54;36.16;102063.88;16108268;19;130285;-50
2023/06/01 22:56:14;;;;;;;3.40;1.33;;;;;;;20.54;36.36;102068.56;16109527;19;130191;-46
2023/06/01 23:01:36;;;;;;;2.40;1.10;;;;;;;20.54;36.53;102068.56;16111216;19;129429;-49
2023/06/01 23:07:06;;;;;;;2.63;0.93;;;;;;;20.53;36.30;102070.50;16105018;19;132237;-46
2023/06/01 23:12:28;;;;;;;2.58;1.02;;;;;;;20.55;36.42;102081.38;16104223;19;133743;-42
2023/06/01 23:17:51;;;;;;;2.63;1.15;;;;;;;20.54;35.98;102082.47;16104478;19;130102;-44
2023/06/01 23:23:14;;;;;;;2.10;1.02;;;;;;;20.54;36.15;102076.91;16108806;19;130734;-47
2023/06/01 23:29:03;;;;;;;3.85;1.08;;;;;;;20.55;36.08;102073.03;16107307;19;130565;-44
2023/06/01 23:34:25;;;;;;;4.88;1.40;;;;;;;20.53;36.16;102078.84;16106509;19;129617;-47
2023/06/01 23:39:47;;;;;;;3.28;1.13;;;;;;;20.51;36.23;102081.00;16122863;19;129599;-42
2023/06/01 23:45:09;;;;;;;3.50;1.00;;;;;;;20.49;35.77;102087.88;16118574;19;130998;-47
2023/06/01 23:50:32;;;;;;;3.38;1.30;;;;;;;20.46;35.79;102091.94;16112714;19;131914;-44
2023/06/01 23:55:54;;;;;;;4.65;1.30;;;;;;;20.44;36.17;102082.97;16116792;19;129761;-46
